Time;durP1;ratioP1;P1;durP2;ratioP2;P2;SDS_P1;SDS_P2;PMS_P1;PMS_P2;Temp;Humidity;BMP_temperature;BMP_pressure;BME280_temperature;BME280_humidity;BME280_pressure;Samples;Min_cycle;Max_cycle;Signal;HPM_P1;HPM_P2
2021/11/22 00:02:15;;;;;;;12.27;4.88;;;;;;;;;;4880995;29;20081;-74
2021/11/22 00:04:44;;;;;;;10.73;4.85;;;;;;;;;;4868512;29;20123;-74
2021/11/22 00:07:15;;;;;;;14.20;5.20;;;;;;;;;;4862462;29;20052;-74
2021/11/22 00:09:44;;;;;;;15.57;5.60;;;;;;;;;;4865576;29;20053;-74
2021/11/22 00:12:13;;;;;;;13.57;5.05;;;;;;;;;;4875030;29;20112;-74
2021/11/22 00:14:42;;;;;;;12.23;4.82;;;;;;;;;;4863862;29;20075;-74
2021/11/22 00:17:11;;;;;;;12.82;5.88;;;;;;;;;;4857514;29;20411;-74
2021/11/22 00:19:42;;;;;;;14.45;4.38;;;;;;;;;;4865195;29;20061;-74
2021/11/22 00:22:11;;;;;;;11.77;5.10;;;;;;;;;;4863976;29;20406;-74
2021/11/22 00:24:41;;;;;;;14.50;5.15;;;;;;;;;;4862081;29;20064;-74
2021/11/22 00:27:10;;;;;;;16.13;5.35;;;;;;;;;;4869002;29;20057;-74
2021/11/22 00:29:41;;;;;;;12.02;4.55;;;;;;;;;;4866239;29;20064;-75
2021/11/22 00:32:29;;;;;;;16.27;4.68;;;;;;;;;;4887128;29;20076;-74
2021/11/22 00:35:18;;;;;;;9.33;3.93;;;;;;;;;;4880300;29;20075;-74
2021/11/22 00:37:51;;;;;;;13.20;4.88;;;;;;;;;;4879206;29;20064;-74
2021/11/22 00:40:21;;;;;;;10.15;4.05;;;;;;;;;;4862819;29;20065;-74
2021/11/22 00:42:50;;;;;;;9.40;3.97;;;;;;;;;;4876546;29;20053;-74
2021/11/22 00:45:19;;;;;;;13.45;5.70;;;;;;;;;;4859484;29;20461;-74
2021/11/22 00:47:51;;;;;;;14.03;5.07;;;;;;;;;;4858583;29;20093;-74
2021/11/22 00:50:23;;;;;;;11.90;5.03;;;;;;;;;;4855599;29;20503;-74
2021/11/22 00:52:53;;;;;;;11.98;4.90;;;;;;;;;;4835823;29;20080;-74
2021/11/22 00:55:23;;;;;;;15.40;5.32;;;;;;;;;;4848464;29;20082;-73
2021/11/22 00:57:52;;;;;;;12.63;6.07;;;;;;;;;;4864075;29;20416;-73
2021/11/22 01:00:25;;;;;;;12.30;5.63;;;;;;;;;;4874766;29;20156;-73
2021/11/22 01:02:54;;;;;;;12.77;5.00;;;;;;;;;;4877242;29;20049;-73
2021/11/22 01:05:30;;;;;;;9.45;4.47;;;;;;;;;;4844151;29;20061;-73
2021/11/22 01:08:03;;;;;;;11.70;4.07;;;;;;;;;;4871381;29;20085;-74
2021/11/22 01:10:32;;;;;;;11.10;4.50;;;;;;;;;;4861702;29;20061;-73
2021/11/22 01:13:01;;;;;;;10.00;4.70;;;;;;;;;;4860487;29;20577;-74
2021/11/22 01:15:33;;;;;;;7.65;3.92;;;;;;;;;;4892154;29;20048;-74
2021/11/22 01:18:03;;;;;;;11.57;3.97;;;;;;;;;;4859456;29;20573;-74
2021/11/22 01:20:33;;;;;;;11.00;4.53;;;;;;;;;;4843743;29;20457;-74
2021/11/22 01:23:05;;;;;;;10.82;4.45;;;;;;;;;;4861463;29;20052;-74
2021/11/22 01:25:35;;;;;;;12.30;4.47;;;;;;;;;;4861960;29;20067;-73
2021/11/22 01:28:04;;;;;;;8.10;3.80;;;;;;;;;;4864229;29;20449;-74
2021/11/22 01:30:39;;;;;;;9.90;4.57;;;;;;;;;;4862551;29;20049;-74
2021/11/22 01:33:07;;;;;;;11.10;4.18;;;;;;;;;;4860536;29;20480;-74
2021/11/22 01:35:42;;;;;;;9.98;5.25;;;;;;;;;;4865417;29;20386;-74
2021/11/22 01:38:12;;;;;;;9.70;4.73;;;;;;;;;;4880168;29;20064;-74
2021/11/22 01:40:41;;;;;;;12.40;4.88;;;;;;;;;;4879442;29;20089;-74
2021/11/22 01:43:14;;;;;;;15.15;4.30;;;;;;;;;;4894878;29;20080;-74
2021/11/22 01:45:43;;;;;;;11.00;5.03;;;;;;;;;;4880149;29;20056;-74
2021/11/22 01:48:13;;;;;;;11.27;5.05;;;;;;;;;;4895146;29;20075;-74
2021/11/22 01:50:44;;;;;;;14.20;4.23;;;;;;;;;;4880193;29;20048;-74
2021/11/22 01:53:15;;;;;;;11.18;4.68;;;;;;;;;;4877409;29;20044;-74
2021/11/22 01:55:47;;;;;;;9.18;3.83;;;;;;;;;;4878156;29;20052;-74
2021/11/22 01:59:05;;;;;;;10.65;4.53;;;;;;;;;;4901124;29;20075;-74
2021/11/22 02:01:34;;;;;;;13.15;5.05;;;;;;;;;;4879798;29;20129;-73
2021/11/22 02:04:05;;;;;;;16.73;5.37;;;;;;;;;;4910556;29;20166;-73
2021/11/22 02:06:37;;;;;;;12.43;4.82;;;;;;;;;;4878342;29;20526;-73
2021/11/22 02:09:07;;;;;;;13.77;5.70;;;;;;;;;;4880749;29;20053;-74
2021/11/22 02:11:36;;;;;;;12.80;4.70;;;;;;;;;;4880018;29;20441;-74
2021/11/22 02:14:05;;;;;;;14.93;4.88;;;;;;;;;;4876591;29;20045;-74
2021/11/22 02:16:37;;;;;;;11.70;4.40;;;;;;;;;;4888213;29;20044;-74
2021/11/22 02:19:06;;;;;;;12.85;4.20;;;;;;;;;;4878814;29;20160;-74
2021/11/22 02:21:37;;;;;;;13.18;4.50;;;;;;;;;;4893753;29;20048;-74
2021/11/22 02:24:07;;;;;;;12.48;3.97;;;;;;;;;;4894271;29;20076;-74
2021/11/22 02:26:37;;;;;;;13.65;5.05;;;;;;;;;;4877834;29;20491;-74
2021/11/22 02:29:06;;;;;;;18.50;5.07;;;;;;;;;;4878034;29;20120;-74
2021/11/22 02:31:35;;;;;;;16.58;6.45;;;;;;;;;;4891466;29;20511;-74
2021/11/22 02:34:07;;;;;;;10.23;4.68;;;;;;;;;;4878441;29;20048;-74
2021/11/22 02:36:37;;;;;;;11.02;4.22;;;;;;;;;;4891724;29;20571;-73
2021/11/22 02:39:07;;;;;;;18.42;5.05;;;;;;;;;;4894319;29;20132;-73
2021/11/22 02:41:38;;;;;;;9.10;3.90;;;;;;;;;;4876457;29;20125;-74
2021/11/22 02:44:08;;;;;;;11.40;3.47;;;;;;;;;;4878887;29;20055;-73
2021/11/22 02:46:37;;;;;;;15.10;5.13;;;;;;;;;;4879344;29;20072;-73
2021/11/22 02:49:06;;;;;;;11.52;4.93;;;;;;;;;;4896123;29;20063;-74
2021/11/22 02:51:36;;;;;;;13.25;4.20;;;;;;;;;;4878995;29;20049;-73
2021/11/22 02:54:06;;;;;;;13.80;5.33;;;;;;;;;;4880757;29;20053;-73
2021/11/22 02:56:36;;;;;;;13.43;4.63;;;;;;;;;;4896099;29;20048;-73
2021/11/22 02:59:10;;;;;;;15.60;5.63;;;;;;;;;;4895850;29;20045;-73
2021/11/22 03:01:41;;;;;;;11.52;3.78;;;;;;;;;;4881812;29;20052;-73
2021/11/22 03:04:11;;;;;;;10.50;4.95;;;;;;;;;;4877762;29;20048;-74
2021/11/22 03:06:43;;;;;;;11.90;4.33;;;;;;;;;;4882567;29;20139;-73
2021/11/22 03:09:14;;;;;;;10.30;4.57;;;;;;;;;;4884985;29;20061;-74
2021/11/22 03:11:43;;;;;;;13.32;4.97;;;;;;;;;;4884393;29;20045;-74
2021/11/22 03:14:15;;;;;;;10.68;4.13;;;;;;;;;;4885567;29;20513;-80
2021/11/22 03:16:46;;;;;;;15.77;4.82;;;;;;;;;;4889138;29;20083;-79
2021/11/22 03:19:15;;;;;;;12.87;4.60;;;;;;;;;;4888875;29;20101;-80
2021/11/22 03:22:09;;;;;;;11.15;4.43;;;;;;;;;;4901162;29;20120;-80
2021/11/22 03:24:41;;;;;;;13.95;4.00;;;;;;;;;;4887318;29;20095;-80
2021/11/22 03:27:10;;;;;;;11.43;5.60;;;;;;;;;;4888325;29;20491;-80
2021/11/22 03:29:39;;;;;;;9.15;3.47;;;;;;;;;;4887123;29;20055;-80
2021/11/22 03:32:08;;;;;;;7.87;2.53;;;;;;;;;;4889909;29;20154;-80
2021/11/22 03:34:37;;;;;;;13.70;4.38;;;;;;;;;;4904179;29;20155;-80
2021/11/22 03:37:09;;;;;;;12.75;5.15;;;;;;;;;;4888657;29;20052;-80
2021/11/22 03:39:39;;;;;;;9.60;3.70;;;;;;;;;;4919815;29;20080;-80
2021/11/22 03:42:14;;;;;;;9.10;3.60;;;;;;;;;;4906732;29;20535;-79
2021/11/22 03:44:43;;;;;;;9.10;2.57;;;;;;;;;;4883565;29;20084;-79
2021/11/22 03:47:13;;;;;;;8.65;3.17;;;;;;;;;;4885103;29;20056;-80
2021/11/22 03:49:43;;;;;;;10.93;3.28;;;;;;;;;;4895042;29;20049;-76
2021/11/22 03:52:12;;;;;;;8.50;3.25;;;;;;;;;;4898526;29;20056;-75
2021/11/22 03:54:41;;;;;;;8.05;3.53;;;;;;;;;;4898096;29;20059;-75
2021/11/22 03:57:12;;;;;;;6.67;3.90;;;;;;;;;;4895064;29;20045;-75
2021/11/22 03:59:42;;;;;;;11.82;3.83;;;;;;;;;;4881173;29;20076;-75
2021/11/22 04:02:12;;;;;;;6.78;2.40;;;;;;;;;;4879630;29;20053;-75
2021/11/22 04:04:42;;;;;;;9.40;4.40;;;;;;;;;;4896334;29;20047;-75
2021/11/22 04:07:11;;;;;;;7.25;2.03;;;;;;;;;;4878037;29;20045;-75
2021/11/22 04:09:41;;;;;;;13.10;2.90;;;;;;;;;;4882426;29;20056;-74
2021/11/22 04:12:12;;;;;;;9.35;3.05;;;;;;;;;;4886052;29;20057;-75
2021/11/22 04:14:41;;;;;;;6.15;2.45;;;;;;;;;;4879810;29;20056;-75
2021/11/22 04:17:11;;;;;;;6.68;3.53;;;;;;;;;;4879690;29;20117;-75
2021/11/22 04:19:41;;;;;;;5.50;2.90;;;;;;;;;;4886300;29;20051;-75
2021/11/22 04:22:10;;;;;;;8.07;2.87;;;;;;;;;;4881879;29;20041;-75
2021/11/22 04:24:39;;;;;;;10.05;3.15;;;;;;;;;;4896318;29;20120;-75
2021/11/22 04:27:11;;;;;;;11.43;2.83;;;;;;;;;;4880548;29;20072;-75
2021/11/22 04:29:41;;;;;;;7.35;3.67;;;;;;;;;;4895508;29;20072;-75
2021/11/22 04:32:10;;;;;;;7.22;2.30;;;;;;;;;;4896934;29;20526;-75
2021/11/22 04:34:39;;;;;;;5.90;2.63;;;;;;;;;;4880780;29;20052;-75
2021/11/22 04:37:08;;;;;;;11.73;3.50;;;;;;;;;;4892845;29;20058;-75
2021/11/22 04:39:38;;;;;;;5.20;2.42;;;;;;;;;;4894992;29;20128;-75
2021/11/22 04:42:07;;;;;;;11.93;3.45;;;;;;;;;;4880464;29;20060;-75
2021/11/22 04:44:36;;;;;;;6.65;2.95;;;;;;;;;;4880763;29;20135;-75
2021/11/22 04:47:09;;;;;;;9.73;2.90;;;;;;;;;;4894632;29;20126;-75
2021/11/22 04:49:39;;;;;;;7.53;2.88;;;;;;;;;;4895998;29;20055;-75
2021/11/22 04:52:09;;;;;;;8.60;2.67;;;;;;;;;;4899459;29;20123;-76
2021/11/22 04:54:39;;;;;;;7.20;2.42;;;;;;;;;;4880127;29;20131;-74
2021/11/22 04:57:08;;;;;;;8.00;3.13;;;;;;;;;;4877885;29;20080;-75
2021/11/22 04:59:39;;;;;;;8.80;3.63;;;;;;;;;;4880656;29;20072;-75
2021/11/22 05:02:10;;;;;;;9.77;3.95;;;;;;;;;;4898839;29;20052;-74
2021/11/22 05:04:40;;;;;;;8.85;2.25;;;;;;;;;;4880245;29;20097;-75
2021/11/22 05:07:15;;;;;;;6.78;2.50;;;;;;;;;;4908975;29;20052;-76
2021/11/22 05:09:46;;;;;;;7.43;2.60;;;;;;;;;;4893592;29;20084;-75
2021/11/22 05:12:15;;;;;;;7.53;2.83;;;;;;;;;;4878081;29;20060;-76
2021/11/22 05:14:45;;;;;;;9.82;3.28;;;;;;;;;;4896399;29;20056;-76
2021/11/22 05:17:16;;;;;;;7.55;2.65;;;;;;;;;;4881237;29;20437;-76
2021/11/22 05:19:45;;;;;;;8.23;3.80;;;;;;;;;;4895181;29;20040;-75
2021/11/22 05:22:18;;;;;;;8.45;2.90;;;;;;;;;;4880766;29;20048;-76
2021/11/22 05:24:49;;;;;;;9.07;2.17;;;;;;;;;;4873964;29;20055;-76
2021/11/22 05:27:18;;;;;;;8.30;2.13;;;;;;;;;;4891305;29;20053;-76
2021/11/22 05:29:47;;;;;;;7.72;2.97;;;;;;;;;;4880460;29;20052;-75
2021/11/22 05:32:18;;;;;;;8.63;2.67;;;;;;;;;;4880899;29;20043;-75
2021/11/22 05:34:48;;;;;;;10.02;4.38;;;;;;;;;;4876643;29;20087;-75
2021/11/22 05:37:18;;;;;;;6.90;2.87;;;;;;;;;;4880629;29;20045;-75
2021/11/22 05:39:48;;;;;;;8.43;2.80;;;;;;;;;;4877890;29;20056;-75
2021/11/22 05:42:18;;;;;;;7.35;2.10;;;;;;;;;;4879736;29;20061;-75
2021/11/22 05:44:47;;;;;;;7.60;2.83;;;;;;;;;;4891454;29;20080;-75
2021/11/22 05:47:16;;;;;;;13.45;3.55;;;;;;;;;;4865587;29;20065;-75
2021/11/22 05:49:48;;;;;;;6.73;2.63;;;;;;;;;;4880516;29;20423;-76
2021/11/22 05:52:18;;;;;;;6.63;2.95;;;;;;;;;;4895357;29;20482;-76
2021/11/22 05:54:51;;;;;;;7.55;2.97;;;;;;;;;;4879576;29;20062;-76
2021/11/22 06:03:23;;;;;;;6.45;2.50;;;;;;;;;;5345204;23;20048;-81
2021/11/22 06:09:09;;;;;;;8.73;3.47;;;;;;;;;;5126722;23;20072;-80
2021/11/22 06:24:34;;;;;;;8.88;3.47;;;;;;;;;;4930585;29;20068;-80
2021/11/22 12:40:45;;;;;;;3.70;1.63;;;;;;;;;;5740642;23;20042;-85
2021/11/22 12:59:15;;;;;;;2.67;1.20;;;;;;;;;;5513022;23;20143;-78
2021/11/22 14:27:56;;;;;;;3.38;1.40;;;;;;;;;;4963011;27;2460517;-75
2021/11/22 14:30:29;;;;;;;2.80;1.10;;;;;;;;;;5049975;28;20491;-75
2021/11/22 14:33:04;;;;;;;3.22;1.02;;;;;;;;;;5065662;28;20828;-75
2021/11/22 14:35:55;;;;;;;3.17;1.10;;;;;;;;;;5048317;28;20451;-75
2021/11/22 14:38:25;;;;;;;2.50;1.03;;;;;;;;;;5038478;28;20436;-75
2021/11/22 14:40:55;;;;;;;2.80;1.10;;;;;;;;;;5064889;28;20744;-75
2021/11/22 14:43:26;;;;;;;2.90;1.20;;;;;;;;;;5044224;28;20418;-75
2021/11/22 14:45:57;;;;;;;3.30;1.40;;;;;;;;;;5061713;28;20432;-75
2021/11/22 14:48:27;;;;;;;3.40;1.30;;;;;;;;;;5046254;28;20405;-75
2021/11/22 14:50:59;;;;;;;3.20;1.27;;;;;;;;;;5063546;28;20420;-75
2021/11/22 14:53:28;;;;;;;3.97;2.10;;;;;;;;;;5057482;28;20826;-75
2021/11/22 14:56:25;;;;;;;2.63;1.20;;;;;;;;;;5060580;28;20502;-75
2021/11/22 14:59:05;;;;;;;3.65;1.60;;;;;;;;;;5061182;28;20405;-75
2021/11/22 15:01:40;;;;;;;3.00;1.30;;;;;;;;;;5067379;28;20421;-75
2021/11/22 15:04:15;;;;;;;3.08;1.30;;;;;;;;;;5028108;28;20525;-75
2021/11/22 15:06:45;;;;;;;2.83;1.50;;;;;;;;;;5054336;28;20482;-75
2021/11/22 15:09:14;;;;;;;3.75;1.67;;;;;;;;;;5052657;28;20428;-75
2021/11/22 15:11:49;;;;;;;4.77;1.50;;;;;;;;;;5057102;28;20843;-75
2021/11/22 15:14:36;;;;;;;3.67;1.50;;;;;;;;;;5051638;28;20484;-75
2021/11/22 15:17:07;;;;;;;3.00;1.20;;;;;;;;;;5047715;28;20805;-75
2021/11/22 15:19:37;;;;;;;3.45;1.52;;;;;;;;;;5053167;28;20412;-75
2021/11/22 15:22:07;;;;;;;4.80;1.90;;;;;;;;;;5055541;28;20400;-75
2021/11/22 15:24:38;;;;;;;4.15;2.08;;;;;;;;;;5054558;28;20416;-76
2021/11/22 15:27:10;;;;;;;5.03;2.05;;;;;;;;;;5086611;28;20422;-77
2021/11/22 15:29:39;;;;;;;2.35;1.02;;;;;;;;;;5104363;28;20480;-72
2021/11/22 15:32:11;;;;;;;4.75;1.60;;;;;;;;;;5100031;28;20405;-72
2021/11/22 15:34:41;;;;;;;3.03;1.60;;;;;;;;;;5100739;28;20419;-73
2021/11/22 15:37:11;;;;;;;3.58;1.40;;;;;;;;;;5092630;28;20410;-72
2021/11/22 15:39:42;;;;;;;6.55;3.08;;;;;;;;;;5092150;28;20418;-72
2021/11/22 15:42:11;;;;;;;3.60;1.60;;;;;;;;;;5090859;28;20826;-72
2021/11/22 15:44:40;;;;;;;4.83;2.20;;;;;;;;;;5077198;28;20423;-72
2021/11/22 15:47:12;;;;;;;5.20;2.30;;;;;;;;;;5090209;28;20448;-71
2021/11/22 15:49:41;;;;;;;4.43;2.20;;;;;;;;;;5089699;28;20452;-71
2021/11/22 15:52:10;;;;;;;5.45;2.50;;;;;;;;;;5092704;28;20496;-72
2021/11/22 15:54:40;;;;;;;3.70;1.77;;;;;;;;;;5076245;28;20419;-75
2021/11/22 15:57:09;;;;;;;4.28;1.63;;;;;;;;;;5083361;28;20468;-75
2021/11/22 15:59:39;;;;;;;6.88;2.63;;;;;;;;;;5090492;28;20409;-75
2021/11/22 16:02:14;;;;;;;3.53;1.42;;;;;;;;;;5085913;28;20410;-74
2021/11/22 16:04:44;;;;;;;6.90;2.72;;;;;;;;;;5083015;28;20406;-75
2021/11/22 16:07:18;;;;;;;3.70;1.45;;;;;;;;;;5081812;28;20430;-75
2021/11/22 16:09:47;;;;;;;4.67;1.70;;;;;;;;;;5081395;28;20451;-75
2021/11/22 16:12:17;;;;;;;3.17;1.30;;;;;;;;;;5090993;28;20414;-75
2021/11/22 16:14:46;;;;;;;8.05;3.75;;;;;;;;;;5091295;28;20413;-74
2021/11/22 16:17:16;;;;;;;3.85;1.55;;;;;;;;;;5094449;28;20532;-74
2021/11/22 16:19:47;;;;;;;4.00;1.60;;;;;;;;;;5089607;28;20401;-74
2021/11/22 16:22:16;;;;;;;2.92;1.42;;;;;;;;;;5085504;28;20731;-74
2021/11/22 16:24:46;;;;;;;4.68;2.00;;;;;;;;;;5097823;28;20426;-73
2021/11/22 16:27:16;;;;;;;4.45;2.10;;;;;;;;;;5091194;28;20425;-74
2021/11/22 16:29:47;;;;;;;2.90;1.40;;;;;;;;;;5091367;28;20425;-75
2021/11/22 16:32:18;;;;;;;3.28;1.20;;;;;;;;;;5079327;28;20407;-76
2021/11/22 16:34:50;;;;;;;3.60;1.40;;;;;;;;;;5075704;28;20759;-76
2021/11/22 16:37:20;;;;;;;3.35;1.23;;;;;;;;;;5078179;28;20423;-75
2021/11/22 16:39:51;;;;;;;3.15;1.20;;;;;;;;;;5064530;28;20495;-77
2021/11/22 16:42:20;;;;;;;3.17;1.45;;;;;;;;;;5088343;28;20457;-73
2021/11/22 16:44:49;;;;;;;3.90;1.48;;;;;;;;;;5090327;28;20444;-73
2021/11/22 16:47:21;;;;;;;4.05;1.77;;;;;;;;;;5077706;28;20426;-77
2021/11/22 16:49:51;;;;;;;5.43;2.10;;;;;;;;;;5080031;28;20780;-77
2021/11/22 16:52:21;;;;;;;3.97;1.90;;;;;;;;;;5088163;28;20505;-74
2021/11/22 16:54:51;;;;;;;3.67;1.70;;;;;;;;;;5087856;28;20417;-73
2021/11/22 16:57:21;;;;;;;3.88;2.05;;;;;;;;;;5079265;28;20417;-75
2021/11/22 16:59:50;;;;;;;3.47;1.80;;;;;;;;;;5081252;28;20422;-74
2021/11/22 17:02:23;;;;;;;5.43;2.13;;;;;;;;;;5080785;28;20431;-75
2021/11/22 17:04:52;;;;;;;3.90;1.80;;;;;;;;;;5084993;28;20475;-79
2021/11/22 17:07:21;;;;;;;3.92;1.90;;;;;;;;;;5077256;28;20461;-77
2021/11/22 17:09:50;;;;;;;4.18;1.80;;;;;;;;;;5082953;28;20410;-77
2021/11/22 17:12:20;;;;;;;3.55;1.83;;;;;;;;;;5074044;28;20529;-74
2021/11/22 17:14:49;;;;;;;3.80;1.80;;;;;;;;;;5074735;28;20447;-78
2021/11/22 17:17:21;;;;;;;4.47;2.03;;;;;;;;;;5076157;28;20438;-79
2021/11/22 17:19:50;;;;;;;5.18;2.00;;;;;;;;;;5086297;28;20492;-77
2021/11/22 17:25:13;;;;;;;3.80;1.80;;;;;;;;;;5065488;28;20493;-79
2021/11/22 17:27:43;;;;;;;5.68;2.17;;;;;;;;;;5090058;28;20476;-78
2021/11/22 17:30:12;;;;;;;5.15;2.40;;;;;;;;;;5090986;28;20967;-77
2021/11/22 17:32:44;;;;;;;4.50;2.45;;;;;;;;;;5066276;28;21408;-77
2021/11/22 17:35:15;;;;;;;5.17;2.40;;;;;;;;;;5076939;28;20454;-77
2021/11/22 17:37:45;;;;;;;4.60;2.40;;;;;;;;;;5068570;28;20405;-76
2021/11/22 17:40:15;;;;;;;4.22;2.15;;;;;;;;;;5048985;28;20446;-78
2021/11/22 17:42:44;;;;;;;4.60;2.33;;;;;;;;;;5076316;28;20499;-78
2021/11/22 17:45:15;;;;;;;4.80;2.47;;;;;;;;;;5084205;28;20418;-76
2021/11/22 17:47:45;;;;;;;5.28;2.45;;;;;;;;;;5081040;28;20431;-78
2021/11/22 17:50:15;;;;;;;5.35;2.60;;;;;;;;;;5083599;28;20414;-77
2021/11/22 17:52:43;;;;;;;3.78;2.25;;;;;;;;;;5074946;28;20407;-74
2021/11/22 17:55:16;;;;;;;5.23;2.70;;;;;;;;;;5075372;28;20451;-75
2021/11/22 17:57:47;;;;;;;5.47;2.67;;;;;;;;;;5063058;28;20416;-77
2021/11/22 18:00:17;;;;;;;5.17;2.67;;;;;;;;;;5084671;28;20527;-77
2021/11/22 18:02:48;;;;;;;5.53;2.50;;;;;;;;;;5063654;28;20732;-75
2021/11/22 18:05:18;;;;;;;6.45;2.83;;;;;;;;;;5069752;28;20445;-77
2021/11/22 18:07:47;;;;;;;4.97;2.40;;;;;;;;;;5071125;28;20418;-75
2021/11/22 18:10:17;;;;;;;5.27;2.50;;;;;;;;;;5070569;28;20455;-76
2021/11/22 18:13:10;;;;;;;5.57;2.15;;;;;;;;;;5088834;28;20414;-76
2021/11/22 18:16:29;;;;;;;6.15;2.60;;;;;;;;;;5075165;28;20410;-79
2021/11/22 18:19:00;;;;;;;4.88;2.10;;;;;;;;;;5078578;28;20416;-79
2021/11/22 18:21:31;;;;;;;4.95;2.47;;;;;;;;;;5069359;28;20510;-79
2021/11/22 18:24:00;;;;;;;4.35;2.20;;;;;;;;;;5089399;28;20563;-78
2021/11/22 18:26:30;;;;;;;5.13;2.60;;;;;;;;;;5077450;28;20441;-79
2021/11/22 18:28:59;;;;;;;5.57;2.67;;;;;;;;;;5080189;28;20426;-78
2021/11/22 18:31:31;;;;;;;6.40;3.33;;;;;;;;;;5089561;28;20410;-79
2021/11/22 18:34:02;;;;;;;4.55;2.30;;;;;;;;;;5087857;28;20402;-77
2021/11/22 18:36:32;;;;;;;4.00;2.20;;;;;;;;;;5087505;28;20896;-76
2021/11/22 18:39:01;;;;;;;4.43;2.05;;;;;;;;;;5078867;28;20454;-74
2021/11/22 18:41:30;;;;;;;4.72;2.30;;;;;;;;;;5076624;28;20520;-75
2021/11/22 18:43:59;;;;;;;3.70;1.98;;;;;;;;;;5069394;28;20453;-75
2021/11/22 18:46:28;;;;;;;4.25;2.13;;;;;;;;;;5060112;28;20993;-75
2021/11/22 18:48:57;;;;;;;4.20;2.28;;;;;;;;;;5072992;28;20412;-76
2021/11/22 18:51:28;;;;;;;4.00;1.90;;;;;;;;;;5072436;28;20818;-76
2021/11/22 18:54:00;;;;;;;3.60;1.90;;;;;;;;;;5084621;28;20449;-77
2021/11/22 18:56:33;;;;;;;3.80;2.20;;;;;;;;;;5081861;28;20410;-77
2021/11/22 18:59:03;;;;;;;4.90;2.40;;;;;;;;;;5079241;28;20482;-78
2021/11/22 19:01:33;;;;;;;5.97;2.30;;;;;;;;;;5064233;28;20429;-76
2021/11/22 19:04:02;;;;;;;5.53;2.40;;;;;;;;;;5094083;28;20424;-77
2021/11/22 19:06:35;;;;;;;4.47;2.38;;;;;;;;;;5078366;28;20536;-76
2021/11/22 19:09:05;;;;;;;5.53;2.60;;;;;;;;;;5076453;28;20500;-76
2021/11/22 19:11:34;;;;;;;5.45;2.70;;;;;;;;;;5085713;28;20418;-76
2021/11/22 19:14:02;;;;;;;5.73;2.67;;;;;;;;;;5079668;28;20449;-78
2021/11/22 19:16:41;;;;;;;6.45;3.45;;;;;;;;;;5069908;28;20428;-78
2021/11/22 19:19:12;;;;;;;4.95;2.70;;;;;;;;;;5065912;28;20495;-78
2021/11/22 19:21:43;;;;;;;12.20;7.93;;;;;;;;;;5064907;28;20418;-78
2021/11/22 19:24:15;;;;;;;7.85;4.88;;;;;;;;;;5070631;28;20534;-77
2021/11/22 19:26:53;;;;;;;5.45;3.10;;;;;;;;;;5081319;28;20410;-77
2021/11/22 19:29:23;;;;;;;5.22;2.75;;;;;;;;;;5078321;28;20462;-75
2021/11/22 19:31:53;;;;;;;6.97;3.10;;;;;;;;;;5084135;28;20522;-78
2021/11/22 19:34:22;;;;;;;6.97;3.17;;;;;;;;;;5078491;28;22233;-78
2021/11/22 19:36:53;;;;;;;5.93;2.90;;;;;;;;;;5083349;28;20491;-78
2021/11/22 19:39:22;;;;;;;6.43;3.38;;;;;;;;;;5064789;28;20494;-78
2021/11/22 19:41:50;;;;;;;5.88;2.80;;;;;;;;;;5083759;28;20410;-78
2021/11/22 19:44:19;;;;;;;6.15;3.47;;;;;;;;;;5068313;28;20498;-77
2021/11/22 19:46:47;;;;;;;5.97;3.65;;;;;;;;;;5084893;28;20409;-77
2021/11/22 19:49:16;;;;;;;5.82;3.42;;;;;;;;;;5070858;28;20776;-77
2021/11/22 19:51:44;;;;;;;6.18;3.25;;;;;;;;;;5079982;28;20426;-77
2021/11/22 19:57:09;;;;;;;5.18;2.85;;;;;;;;;;5080558;28;20423;-77
2021/11/22 19:59:39;;;;;;;5.57;3.15;;;;;;;;;;5077722;28;20479;-78
2021/11/22 20:02:16;;;;;;;5.13;2.75;;;;;;;;;;5083833;28;20731;-78
2021/11/22 20:04:47;;;;;;;5.10;2.80;;;;;;;;;;5091095;28;20406;-79
2021/11/22 20:07:41;;;;;;;7.85;3.00;;;;;;;;;;5089877;28;20424;-79
2021/11/22 20:10:13;;;;;;;7.32;3.10;;;;;;;;;;5094895;28;20424;-79
2021/11/22 20:12:44;;;;;;;6.07;3.30;;;;;;;;;;5078749;28;20891;-78
2021/11/22 20:15:14;;;;;;;7.80;3.92;;;;;;;;;;5082211;28;20414;-78
2021/11/22 20:17:46;;;;;;;7.75;3.97;;;;;;;;;;5079892;28;20984;-78
2021/11/22 20:20:18;;;;;;;6.88;4.00;;;;;;;;;;5079555;28;20498;-78
2021/11/22 20:22:49;;;;;;;7.38;3.85;;;;;;;;;;5075637;28;20435;-78
2021/11/22 20:25:22;;;;;;;5.63;3.50;;;;;;;;;;5063789;28;20425;-78
2021/11/22 20:27:50;;;;;;;6.75;3.90;;;;;;;;;;5079336;28;20431;-78
2021/11/22 20:30:23;;;;;;;7.72;4.07;;;;;;;;;;5081882;28;20501;-78
2021/11/22 20:32:52;;;;;;;6.28;3.90;;;;;;;;;;5081638;28;20439;-78
2021/11/22 20:35:21;;;;;;;8.68;3.80;;;;;;;;;;5084591;28;20414;-78
2021/11/22 20:37:51;;;;;;;7.18;3.67;;;;;;;;;;5067405;28;20564;-78
2021/11/22 20:40:22;;;;;;;6.70;3.88;;;;;;;;;;5077810;28;20475;-78
2021/11/22 20:42:51;;;;;;;7.63;3.55;;;;;;;;;;5083009;28;20481;-78
2021/11/22 20:45:20;;;;;;;6.90;3.58;;;;;;;;;;5075596;28;20487;-78
2021/11/22 20:47:49;;;;;;;6.03;3.60;;;;;;;;;;5062097;28;20411;-78
2021/11/22 20:50:17;;;;;;;7.30;3.67;;;;;;;;;;5082382;28;20823;-78
2021/11/22 20:52:46;;;;;;;7.13;4.20;;;;;;;;;;5080092;28;20490;-78
2021/11/22 20:55:16;;;;;;;6.37;3.43;;;;;;;;;;5078039;28;20415;-78
2021/11/22 21:00:43;;;;;;;6.70;4.00;;;;;;;;;;5078058;28;20475;-77
2021/11/22 21:03:13;;;;;;;7.22;3.83;;;;;;;;;;5077830;28;20403;-78
2021/11/22 21:05:43;;;;;;;6.47;3.42;;;;;;;;;;5071990;28;20419;-77
2021/11/22 21:08:12;;;;;;;7.40;3.85;;;;;;;;;;5089038;28;20444;-78
2021/11/22 21:10:42;;;;;;;6.28;3.83;;;;;;;;;;5078036;28;20546;-78
2021/11/22 21:13:12;;;;;;;13.35;6.80;;;;;;;;;;5070736;28;20476;-78
2021/11/22 21:15:42;;;;;;;14.43;7.38;;;;;;;;;;5078876;28;20422;-77
2021/11/22 21:18:13;;;;;;;14.13;6.93;;;;;;;;;;5078847;28;20753;-78
2021/11/22 21:20:43;;;;;;;6.88;3.97;;;;;;;;;;5065285;28;20444;-77
2021/11/22 21:23:13;;;;;;;7.30;4.13;;;;;;;;;;5083944;28;20949;-78
2021/11/22 21:25:45;;;;;;;8.25;4.10;;;;;;;;;;5081320;28;20417;-78
2021/11/22 21:28:15;;;;;;;6.35;3.95;;;;;;;;;;5079453;28;20418;-77
2021/11/22 21:30:44;;;;;;;6.10;3.65;;;;;;;;;;5078930;28;20426;-78
2021/11/22 21:33:14;;;;;;;7.47;4.45;;;;;;;;;;5080057;28;20404;-78
2021/11/22 21:35:43;;;;;;;6.05;3.38;;;;;;;;;;5083384;28;20406;-77
2021/11/22 21:38:13;;;;;;;8.10;3.88;;;;;;;;;;5078082;28;20489;-77
2021/11/22 21:40:42;;;;;;;6.32;4.32;;;;;;;;;;5075176;28;20417;-77
2021/11/22 21:43:15;;;;;;;6.82;4.03;;;;;;;;;;5055809;28;20466;-78
2021/11/22 21:45:48;;;;;;;6.93;4.00;;;;;;;;;;5068874;28;20521;-77
2021/11/22 21:48:17;;;;;;;6.55;3.80;;;;;;;;;;5078703;28;20938;-78
2021/11/22 21:50:47;;;;;;;6.57;4.18;;;;;;;;;;5077823;28;20419;-78
2021/11/22 21:53:16;;;;;;;7.00;4.00;;;;;;;;;;5082693;28;21080;-78
2021/11/22 21:55:47;;;;;;;7.00;4.15;;;;;;;;;;5065779;28;20755;-79
2021/11/22 21:58:43;;;;;;;8.50;4.57;;;;;;;;;;5085600;28;20421;-79
2021/11/22 22:01:12;;;;;;;8.27;4.15;;;;;;;;;;5079934;28;20403;-78
2021/11/22 22:03:43;;;;;;;9.77;4.20;;;;;;;;;;5065592;28;20433;-78
2021/11/22 22:06:11;;;;;;;8.73;4.35;;;;;;;;;;5080996;28;20484;-78
2021/11/22 22:08:40;;;;;;;8.55;4.40;;;;;;;;;;5089348;28;20414;-78
2021/11/22 22:11:09;;;;;;;6.45;3.97;;;;;;;;;;5088763;28;20479;-77
2021/11/22 22:13:41;;;;;;;6.63;4.28;;;;;;;;;;5069302;28;20613;-79
2021/11/22 22:16:12;;;;;;;7.70;4.20;;;;;;;;;;5087330;28;20414;-78
2021/11/22 22:18:41;;;;;;;8.20;4.20;;;;;;;;;;5068397;28;20409;-79
2021/11/22 22:21:10;;;;;;;8.85;4.43;;;;;;;;;;5088981;28;20498;-78
2021/11/22 22:23:39;;;;;;;6.90;4.50;;;;;;;;;;5064980;28;20431;-78
2021/11/22 22:26:08;;;;;;;7.28;4.22;;;;;;;;;;5074460;28;20446;-78
2021/11/22 22:28:37;;;;;;;6.85;4.43;;;;;;;;;;5077738;28;20416;-78
2021/11/22 22:31:31;;;;;;;7.97;4.67;;;;;;;;;;5070165;28;20427;-78
2021/11/22 22:34:02;;;;;;;6.55;3.75;;;;;;;;;;5057977;28;20502;-78
2021/11/22 22:36:31;;;;;;;6.82;3.90;;;;;;;;;;5083260;28;20417;-77
2021/11/22 22:39:01;;;;;;;7.53;3.83;;;;;;;;;;5090197;28;20445;-78
2021/11/22 22:41:30;;;;;;;6.95;3.60;;;;;;;;;;5077947;28;20460;-77
2021/11/22 22:43:59;;;;;;;6.95;3.85;;;;;;;;;;5088326;28;20505;-77
2021/11/22 22:46:28;;;;;;;6.57;4.00;;;;;;;;;;5088683;28;20943;-78
2021/11/22 22:48:57;;;;;;;6.88;3.65;;;;;;;;;;5065348;28;20494;-78
2021/11/22 22:51:29;;;;;;;7.23;3.63;;;;;;;;;;5071548;28;20449;-78
2021/11/22 22:53:58;;;;;;;6.85;3.90;;;;;;;;;;5075557;28;20428;-78
2021/11/22 22:56:32;;;;;;;7.70;3.97;;;;;;;;;;5091747;28;20428;-78
2021/11/22 22:59:03;;;;;;;10.85;4.65;;;;;;;;;;5088039;28;20494;-78
2021/11/22 23:01:33;;;;;;;7.25;4.35;;;;;;;;;;5077892;28;20409;-78
2021/11/22 23:04:02;;;;;;;7.53;4.22;;;;;;;;;;5080548;28;20407;-78
2021/11/22 23:06:32;;;;;;;8.55;4.07;;;;;;;;;;5075493;28;20413;-78
2021/11/22 23:09:05;;;;;;;7.63;4.57;;;;;;;;;;5087247;28;20414;-78
2021/11/22 23:11:34;;;;;;;12.52;5.55;;;;;;;;;;5092301;28;21003;-78
2021/11/22 23:14:03;;;;;;;10.20;5.57;;;;;;;;;;5086452;28;20411;-78
2021/11/22 23:16:32;;;;;;;11.25;5.60;;;;;;;;;;5086977;28;20418;-77
2021/11/22 23:19:01;;;;;;;13.70;6.80;;;;;;;;;;5065679;28;20434;-78
2021/11/22 23:21:56;;;;;;;15.40;6.45;;;;;;;;;;5084345;28;20407;-77
2021/11/22 23:24:26;;;;;;;16.45;7.15;;;;;;;;;;5077784;28;20967;-77
2021/11/22 23:26:55;;;;;;;12.82;6.05;;;;;;;;;;5060386;28;20430;-77
2021/11/22 23:29:23;;;;;;;10.93;5.50;;;;;;;;;;5086497;28;20395;-77